Time;durP1;ratioP1;P1;durP2;ratioP2;P2;SDS_P1;SDS_P2;PMS_P1;PMS_P2;Temp;Humidity;BMP_temperature;BMP_pressure;BME280_temperature;BME280_humidity;BME280_pressure;Samples;Min_cycle;Max_cycle;Signal;HPM_P1;HPM_P2
2023/07/29 00:03:19;;;;;;;1.13;0.88;;;;;;;18.22;68.57;99239.44;10423628;28;20758;-59
2023/07/29 00:08:22;;;;;;;1.17;0.90;;;;;;;18.14;68.78;99230.59;10432092;28;20517;-60
2023/07/29 00:13:24;;;;;;;1.15;0.80;;;;;;;18.16;68.62;99232.09;10426157;28;20067;-59
2023/07/29 00:18:27;;;;;;;1.15;0.93;;;;;;;18.16;68.85;99231.25;10428120;28;20264;-60
2023/07/29 00:23:29;;;;;;;1.52;1.00;;;;;;;18.16;68.66;99229.47;10429008;28;20550;-59
2023/07/29 00:28:32;;;;;;;2.35;1.20;;;;;;;18.04;68.50;99221.94;10400914;28;20178;-59
2023/07/29 00:33:34;;;;;;;5.40;1.65;;;;;;;18.08;68.92;99213.53;10424924;28;20045;-59
2023/07/29 00:38:36;;;;;;;6.40;1.20;;;;;;;18.03;68.86;99215.00;10437257;28;20044;-59
2023/07/29 00:43:38;;;;;;;1.75;0.85;;;;;;;17.84;69.08;99202.78;10442563;28;20603;-59
2023/07/29 00:48:40;;;;;;;0.95;0.85;;;;;;;17.78;69.21;99191.03;10433827;28;20076;-59
2023/07/29 00:53:42;;;;;;;0.70;0.70;;;;;;;17.88;69.26;99193.56;10437997;28;20052;-59
2023/07/29 00:58:46;;;;;;;1.20;0.93;;;;;;;17.82;69.19;99183.59;10427984;28;20049;-59
2023/07/29 01:03:48;;;;;;;1.00;0.90;;;;;;;17.84;69.33;99181.63;10430607;28;20060;-59
2023/07/29 01:08:58;;;;;;;1.48;0.88;;;;;;;17.83;69.21;99180.00;10426128;28;20889;-59
2023/07/29 01:14:34;;;;;;;1.43;1.00;;;;;;;17.69;69.70;99183.16;10430383;28;20044;-59
2023/07/29 01:19:55;;;;;;;1.55;1.00;;;;;;;17.54;69.63;99195.31;10423428;28;20041;-60
2023/07/29 01:24:59;;;;;;;3.88;1.10;;;;;;;17.53;69.61;99181.25;10425502;28;20049;-59
2023/07/29 01:30:02;;;;;;;3.00;0.80;;;;;;;17.49;69.65;99177.25;10427979;28;20049;-59
2023/07/29 01:35:23;;;;;;;0.50;0.50;;;;;;;17.49;69.80;99187.81;10427665;28;20064;-59
2023/07/29 01:40:28;;;;;;;0.70;0.70;;;;;;;17.46;69.42;99172.28;10430606;28;20159;-59
2023/07/29 01:45:35;;;;;;;0.90;0.90;;;;;;;17.45;69.60;99175.91;10413208;28;20332;-59
2023/07/29 01:50:37;;;;;;;1.25;0.98;;;;;;;17.46;69.69;99179.38;10432350;28;20519;-60
2023/07/29 01:55:39;;;;;;;0.98;0.80;;;;;;;17.37;69.82;99183.75;10412238;28;20040;-59
2023/07/29 02:00:41;;;;;;;1.73;1.17;;;;;;;17.49;69.89;99173.78;10409657;28;20037;-59
2023/07/29 02:05:43;;;;;;;0.80;0.80;;;;;;;17.50;69.68;99163.06;10421578;28;20044;-60
2023/07/29 02:10:46;;;;;;;1.63;1.00;;;;;;;17.61;69.47;99154.88;10437158;28;20045;-59
2023/07/29 02:15:48;;;;;;;1.40;0.90;;;;;;;17.67;69.38;99164.81;10421191;28;20143;-59
2023/07/29 02:20:50;;;;;;;1.05;0.90;;;;;;;17.79;69.13;99160.94;10439011;28;20562;-59
2023/07/29 02:25:52;;;;;;;1.10;0.90;;;;;;;17.80;69.32;99154.69;10442963;28;20417;-59
2023/07/29 02:31:17;;;;;;;1.73;0.88;;;;;;;17.83;69.49;99138.47;10439128;28;20052;-59
2023/07/29 02:36:20;;;;;;;1.15;1.05;;;;;;;17.94;69.35;99136.53;10418082;28;20041;-59
2023/07/29 02:41:22;;;;;;;1.15;0.90;;;;;;;17.82;68.83;99131.53;10415964;28;20037;-59
2023/07/29 02:46:24;;;;;;;2.22;1.38;;;;;;;17.65;69.28;99128.94;10435657;28;20048;-60
2023/07/29 02:51:26;;;;;;;1.38;0.90;;;;;;;17.55;69.51;99115.81;10430730;28;20061;-59
2023/07/29 02:56:30;;;;;;;0.82;0.70;;;;;;;17.51;69.62;99109.19;10431565;28;20041;-59
2023/07/29 03:01:32;;;;;;;1.23;0.88;;;;;;;17.56;69.67;99109.56;10417869;28;20397;-59
2023/07/29 03:06:34;;;;;;;0.77;0.70;;;;;;;17.76;69.67;99111.00;10415375;28;20114;-59
2023/07/29 03:11:37;;;;;;;2.00;1.13;;;;;;;17.84;69.26;99104.94;10425897;28;20507;-59
2023/07/29 03:16:39;;;;;;;1.65;1.00;;;;;;;17.99;69.21;99105.16;10433809;28;20227;-59
2023/07/29 03:21:41;;;;;;;1.20;0.80;;;;;;;18.09;68.91;99116.47;10394547;28;20060;-57
2023/07/29 03:26:43;;;;;;;1.58;1.00;;;;;;;18.08;68.94;99112.97;10414022;28;20044;-57
2023/07/29 03:31:47;;;;;;;1.17;0.98;;;;;;;18.03;69.21;99107.34;10431761;28;20465;-57
2023/07/29 03:36:51;;;;;;;1.08;0.77;;;;;;;18.10;68.74;99104.88;10434084;28;20095;-59
2023/07/29 03:41:53;;;;;;;1.00;0.73;;;;;;;18.08;68.98;99093.63;10426988;28;20151;-59
2023/07/29 03:46:55;;;;;;;0.90;0.68;;;;;;;18.06;68.79;99104.38;10426227;28;20052;-60
2023/07/29 03:51:57;;;;;;;0.75;0.75;;;;;;;18.12;69.13;99101.09;10417599;28;20047;-59
2023/07/29 03:56:59;;;;;;;1.25;0.90;;;;;;;18.19;68.92;99098.63;10403533;28;20305;-59
2023/07/29 04:02:01;;;;;;;1.00;0.90;;;;;;;18.16;68.62;99101.59;10443149;28;20134;-59
2023/07/29 04:07:04;;;;;;;0.80;0.73;;;;;;;18.16;68.82;99102.41;10457973;28;20328;-59
2023/07/29 04:12:06;;;;;;;1.52;0.93;;;;;;;18.16;68.45;99109.53;10455613;28;20055;-59
2023/07/29 04:17:09;;;;;;;2.75;1.10;;;;;;;18.01;68.63;99104.03;10430314;28;20304;-60
2023/07/29 04:22:11;;;;;;;0.88;0.82;;;;;;;17.80;68.91;99099.13;10454579;28;20416;-59
2023/07/29 04:27:13;;;;;;;4.50;0.90;;;;;;;17.87;68.93;99088.75;10454482;28;20076;-60
2023/07/29 04:32:15;;;;;;;0.85;0.80;;;;;;;17.94;68.82;99097.69;10441964;28;20069;-59
2023/07/29 04:37:18;;;;;;;3.70;1.08;;;;;;;17.97;68.75;99097.41;10454584;28;20048;-59
2023/07/29 04:42:20;;;;;;;3.03;1.00;;;;;;;17.97;68.90;99107.16;10466530;28;20051;-59
2023/07/29 04:47:23;;;;;;;1.58;0.85;;;;;;;18.09;68.65;99103.22;10460243;28;20559;-59
2023/07/29 04:52:28;;;;;;;2.17;0.98;;;;;;;18.27;68.24;99101.34;10461040;28;20424;-62
2023/07/29 04:57:30;;;;;;;7.03;1.20;;;;;;;18.27;68.15;99094.25;10452462;28;20500;-62
2023/07/29 05:02:32;;;;;;;1.08;0.90;;;;;;;18.29;67.71;99094.91;10461657;28;20058;-62
2023/07/29 05:07:34;;;;;;;0.93;0.90;;;;;;;18.59;67.81;99098.78;10444968;28;20095;-62
2023/07/29 05:12:36;;;;;;;3.58;1.13;;;;;;;18.97;67.17;99090.22;10467367;28;20527;-62
2023/07/29 05:17:38;;;;;;;3.83;1.17;;;;;;;19.20;66.69;99088.59;10457304;28;20059;-62
2023/07/29 05:22:40;;;;;;;1.02;0.85;;;;;;;19.22;66.37;99081.31;10455810;28;20149;-62
2023/07/29 05:27:42;;;;;;;0.77;0.77;;;;;;;19.07;66.70;99090.09;10464586;28;20142;-61
2023/07/29 05:32:44;;;;;;;4.60;1.00;;;;;;;18.94;67.18;99085.25;10468195;28;20048;-62
2023/07/29 05:37:46;;;;;;;1.40;0.90;;;;;;;18.90;67.60;99102.47;10447092;28;20820;-62
2023/07/29 05:42:48;;;;;;;2.33;0.80;;;;;;;18.84;68.27;99110.25;10461254;28;20509;-62
2023/07/29 05:47:50;;;;;;;0.85;0.82;;;;;;;18.61;68.92;99110.03;10449010;28;20059;-62
2023/07/29 05:52:53;;;;;;;4.15;1.08;;;;;;;18.61;69.24;99108.22;10451432;28;20059;-62
2023/07/29 05:57:55;;;;;;;1.00;0.90;;;;;;;18.71;69.06;99113.38;10450259;28;20508;-62
2023/07/29 06:02:57;;;;;;;1.33;1.05;;;;;;;18.70;69.32;99122.31;10450931;28;20118;-62
2023/07/29 06:07:59;;;;;;;1.33;1.05;;;;;;;18.79;68.90;99110.72;10449509;28;20519;-62
2023/07/29 06:13:01;;;;;;;3.05;1.05;;;;;;;18.82;69.05;99096.34;10448968;28;20044;-62
2023/07/29 06:18:04;;;;;;;3.28;0.93;;;;;;;18.80;69.58;99107.09;10445532;28;21426;-62
2023/07/29 06:23:07;;;;;;;1.27;1.00;;;;;;;18.90;69.25;99107.78;10459896;28;20122;-62
2023/07/29 06:28:09;;;;;;;1.00;0.90;;;;;;;18.85;69.65;99114.56;10462631;28;20527;-62
2023/07/29 06:33:12;;;;;;;1.15;0.90;;;;;;;18.91;69.69;99098.81;10469147;28;20036;-62
2023/07/29 06:38:14;;;;;;;1.35;1.10;;;;;;;19.06;69.71;99096.38;10464652;28;20556;-62
2023/07/29 06:43:16;;;;;;;0.90;0.90;;;;;;;19.15;69.25;99100.72;10467583;28;20064;-62
2023/07/29 06:48:19;;;;;;;3.10;1.10;;;;;;;19.19;69.57;99100.22;10460756;28;20052;-62
2023/07/29 06:53:22;;;;;;;1.42;1.00;;;;;;;19.26;69.12;99116.25;10467616;28;20135;-62
2023/07/29 06:58:24;;;;;;;2.58;1.10;;;;;;;19.36;69.43;99131.00;10457742;28;20045;-62
2023/07/29 07:03:26;;;;;;;1.33;1.05;;;;;;;19.46;69.15;99126.34;10458509;28;21540;-62
2023/07/29 07:08:30;;;;;;;1.92;1.25;;;;;;;19.68;68.87;99137.28;10447116;28;20569;-62
2023/07/29 07:13:33;;;;;;;3.15;0.93;;;;;;;19.89;68.52;99153.50;10429535;28;20052;-62
2023/07/29 07:18:35;;;;;;;1.00;0.90;;;;;;;19.93;68.24;99157.50;10436346;28;20266;-62
2023/07/29 07:23:38;;;;;;;1.15;0.93;;;;;;;20.13;68.29;99150.81;10447413;28;20071;-62
2023/07/29 07:28:40;;;;;;;1.50;0.88;;;;;;;20.65;67.21;99151.94;10437201;28;20049;-62
2023/07/29 07:33:42;;;;;;;3.20;1.00;;;;;;;21.15;66.44;99150.63;10445640;28;20394;-63
2023/07/29 07:38:44;;;;;;;0.93;0.85;;;;;;;21.77;65.32;99152.94;10453377;28;20229;-62
2023/07/29 07:43:46;;;;;;;1.48;0.90;;;;;;;21.95;64.30;99165.88;10460721;28;20059;-62
2023/07/29 07:48:48;;;;;;;0.82;0.80;;;;;;;22.91;63.40;99149.75;10446675;28;20036;-63
2023/07/29 07:53:50;;;;;;;1.63;0.70;;;;;;;23.58;60.94;99136.84;10452687;28;20981;-62
2023/07/29 07:58:52;;;;;;;1.90;1.00;;;;;;;23.61;60.49;99133.81;10454176;28;20045;-63
2023/07/29 08:03:54;;;;;;;4.22;1.58;;;;;;;23.83;59.57;99125.56;10460846;28;20052;-62
2023/07/29 08:08:56;;;;;;;4.28;1.13;;;;;;;23.52;59.63;99137.63;10439181;28;20113;-63
2023/07/29 08:13:59;;;;;;;1.77;1.13;;;;;;;23.04;60.12;99144.56;10439976;28;20115;-63
2023/07/29 08:19:01;;;;;;;1.13;0.80;;;;;;;24.11;58.63;99155.75;10447820;28;20040;-63
2023/07/29 08:24:03;;;;;;;1.40;0.90;;;;;;;24.51;57.53;99156.75;10454503;28;20052;-63
2023/07/29 08:29:05;;;;;;;1.65;0.90;;;;;;;24.38;57.33;99154.03;10446765;28;20396;-63
2023/07/29 08:34:07;;;;;;;2.40;1.20;;;;;;;24.57;56.94;99155.97;10453086;28;20534;-63
2023/07/29 08:39:10;;;;;;;1.10;0.80;;;;;;;25.87;55.00;99144.66;10454206;28;20654;-63
2023/07/29 08:44:24;;;;;;;1.30;0.88;;;;;;;25.71;52.95;99133.59;10461038;28;20496;-63
2023/07/29 08:49:28;;;;;;;1.50;0.88;;;;;;;26.09;52.85;99136.41;10466405;28;20041;-63
2023/07/29 08:54:31;;;;;;;4.53;1.00;;;;;;;26.26;52.49;99148.34;10466791;28;20141;-63
2023/07/29 08:59:33;;;;;;;0.82;0.70;;;;;;;25.64;52.51;99138.94;10464700;28;20611;-63
2023/07/29 09:04:35;;;;;;;0.80;0.80;;;;;;;25.14;53.08;99150.22;10462580;28;20601;-63
2023/07/29 09:09:37;;;;;;;1.95;1.05;;;;;;;25.04;53.29;99163.97;10457339;28;20053;-62
2023/07/29 09:14:39;;;;;;;1.98;0.88;;;;;;;24.63;53.97;99162.38;10467534;28;20059;-63
2023/07/29 09:19:41;;;;;;;1.55;0.80;;;;;;;24.26;54.01;99158.31;10462329;28;20049;-63
2023/07/29 09:24:44;;;;;;;1.38;0.90;;;;;;;24.03;54.60;99150.53;10451299;28;20149;-63
2023/07/29 09:29:46;;;;;;;1.35;0.75;;;;;;;23.81;54.66;99156.97;10456926;28;20420;-62
2023/07/29 09:34:49;;;;;;;1.02;0.60;;;;;;;24.16;53.76;99157.84;10461679;28;20185;-63
2023/07/29 09:39:51;;;;;;;1.50;0.90;;;;;;;25.44;50.71;99156.03;10459365;28;20057;-63
2023/07/29 09:44:53;;;;;;;0.98;0.77;;;;;;;25.65;50.45;99156.63;10465382;28;20045;-63
2023/07/29 09:49:55;;;;;;;0.82;0.63;;;;;;;25.52;49.70;99159.34;10463311;28;20044;-63
2023/07/29 09:54:58;;;;;;;4.30;0.90;;;;;;;25.54;49.52;99159.94;10468465;28;20059;-62
2023/07/29 10:00:00;;;;;;;1.33;0.90;;;;;;;25.81;48.19;99155.41;10461315;28;20048;-62
2023/07/29 10:05:03;;;;;;;1.67;0.70;;;;;;;26.61;47.20;99153.19;10467920;28;20098;-62
2023/07/29 10:10:07;;;;;;;0.57;0.57;;;;;;;26.95;46.57;99164.56;10464023;28;20452;-62
2023/07/29 10:18:09;;;;;;;1.08;0.68;;;;;;;26.34;45.77;99172.25;10543608;27;20249;-61
2023/07/29 10:23:12;;;;;;;0.95;0.80;;;;;;;26.87;44.87;99170.19;10543366;28;20566;-61
2023/07/29 10:28:18;;;;;;;0.60;0.60;;;;;;;27.62;43.69;99178.19;10539950;28;20138;-61
2023/07/29 10:33:20;;;;;;;0.85;0.82;;;;;;;27.31;43.17;99165.59;10525871;28;20167;-60
2023/07/29 10:38:24;;;;;;;1.98;0.93;;;;;;;27.04;43.58;99163.25;10520790;28;20292;-61
2023/07/29 10:43:32;;;;;;;0.88;0.57;;;;;;;27.03;43.46;99158.94;10533051;28;20055;-61
2023/07/29 10:48:34;;;;;;;1.33;0.80;;;;;;;26.55;43.94;99153.16;10520685;28;20139;-61
2023/07/29 10:53:37;;;;;;;0.80;0.70;;;;;;;25.99;45.15;99152.09;10539754;28;20079;-61
2023/07/29 10:58:42;;;;;;;1.02;0.70;;;;;;;25.78;44.90;99151.28;10535089;28;20139;-61
2023/07/29 11:04:18;;;;;;;1.05;0.80;;;;;;;25.51;44.21;99156.88;10535596;28;20079;-61
2023/07/29 11:09:52;;;;;;;1.50;0.90;;;;;;;25.73;43.44;99153.75;10536027;28;20040;-61
2023/07/29 11:15:23;;;;;;;0.82;0.68;;;;;;;26.17;41.92;99149.59;10530985;28;20551;-61
2023/07/29 11:20:28;;;;;;;0.77;0.70;;;;;;;26.26;42.45;99149.13;10511465;28;20072;-61
2023/07/29 11:28:15;;;;;;;0.70;0.70;;;;;;;25.77;43.73;99154.97;10531219;27;20136;-60
2023/07/29 11:33:21;;;;;;;2.28;1.00;;;;;;;25.70;42.46;99148.00;10535873;28;20040;-61
2023/07/29 11:38:24;;;;;;;2.00;0.98;;;;;;;25.57;43.47;99148.81;10534369;28;21132;-61
2023/07/29 11:43:26;;;;;;;0.73;0.60;;;;;;;25.76;42.89;99148.00;10534211;28;20434;-60
2023/07/29 11:48:33;;;;;;;0.60;0.60;;;;;;;25.55;41.96;99137.47;10524305;28;20059;-60
2023/07/29 11:53:36;;;;;;;1.15;0.70;;;;;;;25.60;42.63;99132.34;10523038;28;20410;-60
2023/07/29 11:58:39;;;;;;;1.63;1.15;;;;;;;25.80;42.48;99124.28;10529856;28;20112;-61
2023/07/29 12:03:42;;;;;;;1.20;0.75;;;;;;;26.09;42.11;99128.38;10533600;28;20142;-61
2023/07/29 12:08:46;;;;;;;1.90;0.80;;;;;;;26.27;41.39;99128.53;10523423;28;20054;-61
2023/07/29 12:13:48;;;;;;;3.45;1.13;;;;;;;26.65;41.40;99113.31;10514757;28;20054;-61
2023/07/29 12:18:50;;;;;;;1.25;0.90;;;;;;;26.69;40.76;99114.53;10517808;28;20051;-61
2023/07/29 12:23:52;;;;;;;0.95;0.65;;;;;;;26.65;40.94;99105.28;10527592;28;20789;-61
2023/07/29 12:28:56;;;;;;;1.33;0.80;;;;;;;26.69;41.01;99101.13;10528406;28;20043;-60
2023/07/29 12:33:58;;;;;;;3.08;0.77;;;;;;;26.89;40.86;99103.72;10497080;28;20047;-60
2023/07/29 12:39:00;;;;;;;0.98;0.88;;;;;;;27.00;40.40;99093.09;10511563;28;20056;-61
2023/07/29 12:44:02;;;;;;;1.70;0.90;;;;;;;27.14;39.85;99100.06;10509142;28;20048;-61
2023/07/29 12:49:04;;;;;;;0.90;0.73;;;;;;;27.21;40.08;99083.91;10508277;28;20496;-61
2023/07/29 12:54:07;;;;;;;1.40;0.68;;;;;;;27.32;39.61;99084.00;10508819;28;20044;-60
2023/07/29 12:59:10;;;;;;;0.77;0.73;;;;;;;27.26;38.97;99097.50;10504865;28;20447;-60
2023/07/29 13:04:12;;;;;;;2.58;1.00;;;;;;;27.33;39.00;99085.66;10506401;28;20483;-61
2023/07/29 13:09:14;;;;;;;1.27;0.80;;;;;;;27.08;39.24;99079.41;10502650;28;20185;-60
2023/07/29 13:14:16;;;;;;;1.05;0.80;;;;;;;27.13;38.60;99082.28;10480929;28;20052;-60
2023/07/29 13:19:20;;;;;;;1.42;0.90;;;;;;;27.45;38.23;99075.84;10496806;28;20044;-61
2023/07/29 13:24:22;;;;;;;1.60;0.85;;;;;;;27.91;37.41;99082.66;10508030;28;20066;-61
2023/07/29 13:29:24;;;;;;;0.82;0.65;;;;;;;27.63;37.62;99093.84;10504714;28;20503;-61
2023/07/29 13:34:27;;;;;;;2.08;0.98;;;;;;;26.99;39.06;99106.75;10504026;28;20043;-61
2023/07/29 13:39:29;;;;;;;1.08;0.90;;;;;;;26.92;39.90;99112.16;10503589;28;20051;-61
2023/07/29 13:44:31;;;;;;;0.80;0.77;;;;;;;26.98;40.03;99121.19;10508844;28;20193;-61
2023/07/29 13:49:33;;;;;;;1.17;0.85;;;;;;;26.84;40.18;99106.22;10500076;28;20048;-60
2023/07/29 13:54:35;;;;;;;0.68;0.68;;;;;;;27.12;40.40;99106.63;10504240;28;20050;-61
2023/07/29 13:59:39;;;;;;;0.93;0.80;;;;;;;26.81;40.97;99090.56;10480762;28;20043;-60
2023/07/29 14:04:42;;;;;;;1.83;1.00;;;;;;;26.63;41.22;99104.66;10503503;28;22172;-60
2023/07/29 14:09:44;;;;;;;1.58;1.00;;;;;;;26.55;41.80;99111.13;10495534;28;20044;-60
2023/07/29 14:14:46;;;;;;;1.27;0.77;;;;;;;26.15;42.25;99116.81;10504120;28;20136;-60
2023/07/29 14:19:48;;;;;;;1.85;0.88;;;;;;;25.97;42.74;99105.94;10483214;28;20051;-60
2023/07/29 14:24:50;;;;;;;1.52;0.90;;;;;;;26.11;43.03;99115.59;10496749;28;20048;-60
2023/07/29 14:29:52;;;;;;;1.65;0.90;;;;;;;26.53;42.45;99112.31;10468637;28;20181;-60
2023/07/29 14:41:40;;;;;;;1.63;1.00;;;;;;;26.76;42.22;99104.63;10475173;27;20164;-60
2023/07/29 14:46:42;;;;;;;1.35;0.90;;;;;;;27.16;41.75;99108.72;10488605;28;20048;-60
2023/07/29 14:51:44;;;;;;;1.52;1.00;;;;;;;26.69;42.05;99110.00;10484532;28;20044;-60
2023/07/29 14:56:46;;;;;;;1.60;0.90;;;;;;;26.54;42.14;99100.59;10493686;28;20036;-60
2023/07/29 15:01:48;;;;;;;1.77;0.93;;;;;;;26.24;42.39;99107.53;10488642;28;20123;-60
2023/07/29 15:12:36;;;;;;;0.82;0.65;;;;;;;26.14;43.15;99099.91;10496365;27;20596;-60
2023/07/29 15:17:39;;;;;;;1.00;0.80;;;;;;;26.39;41.38;99100.00;10461720;28;20048;-60
2023/07/29 15:22:41;;;;;;;0.98;0.85;;;;;;;26.23;42.08;99097.81;10486408;28;20430;-60
2023/07/29 15:27:43;;;;;;;1.55;0.90;;;;;;;26.55;42.29;99104.88;10478836;28;20993;-60
2023/07/29 15:32:45;;;;;;;1.38;0.88;;;;;;;26.34;42.10;99102.53;10495688;28;20048;-61
2023/07/29 15:37:47;;;;;;;0.93;0.80;;;;;;;26.38;42.21;99103.75;10489169;28;20049;-61
2023/07/29 16:36:40;;;;;;;1.08;0.65;;;;;;;21.92;49.28;99153.75;10578349;27;20135;-60
2023/07/29 16:41:43;;;;;;;2.25;1.05;;;;;;;22.60;48.92;99140.16;10570896;27;20124;-60
2023/07/29 16:46:48;;;;;;;0.70;0.70;;;;;;;23.10;48.15;99133.97;10585382;27;20047;-60
2023/07/29 16:51:50;;;;;;;1.20;0.80;;;;;;;23.38;47.72;99134.00;10545016;27;20516;-60
2023/07/29 16:56:52;;;;;;;0.90;0.85;;;;;;;23.59;47.61;99141.19;10561869;27;20229;-60
2023/07/29 17:01:54;;;;;;;0.82;0.70;;;;;;;23.93;46.48;99135.88;10555151;27;20554;-60
2023/07/29 17:06:56;;;;;;;1.80;1.08;;;;;;;24.01;46.51;99133.03;10579321;27;20507;-60
2023/07/29 17:11:59;;;;;;;1.27;0.80;;;;;;;24.23;46.45;99131.97;10573731;27;20048;-60
2023/07/29 17:17:01;;;;;;;1.63;0.80;;;;;;;24.22;46.09;99125.81;10571333;27;20050;-60
2023/07/29 17:22:03;;;;;;;2.30;1.00;;;;;;;24.15;46.50;99134.81;10573961;27;20391;-60
2023/07/29 17:27:06;;;;;;;2.08;0.88;;;;;;;24.16;46.65;99136.47;10572762;27;20043;-61
2023/07/29 17:32:08;;;;;;;1.30;1.00;;;;;;;24.07;46.20;99126.94;10570132;27;20123;-60
2023/07/29 17:37:10;;;;;;;0.85;0.63;;;;;;;24.09;45.99;99131.06;10572614;27;20048;-61
2023/07/29 17:42:12;;;;;;;1.08;0.75;;;;;;;24.12;46.17;99140.56;10573848;27;20051;-60
2023/07/29 17:47:15;;;;;;;1.83;0.70;;;;;;;24.08;46.33;99141.97;10520427;27;20047;-60
2023/07/29 17:52:17;;;;;;;3.28;0.90;;;;;;;24.01;46.85;99155.25;10544108;27;20112;-60
2023/07/29 17:57:20;;;;;;;7.90;1.48;;;;;;;24.05;47.28;99166.34;10543890;27;20936;-60
2023/07/29 18:02:22;;;;;;;1.50;0.90;;;;;;;24.14;47.52;99176.72;10527433;27;20096;-61
2023/07/29 18:07:24;;;;;;;3.13;0.98;;;;;;;24.17;47.35;99175.50;10527183;27;20279;-60
2023/07/29 18:12:26;;;;;;;1.23;0.77;;;;;;;24.09;47.14;99173.00;10546672;27;20044;-61
2023/07/29 18:17:28;;;;;;;1.30;0.70;;;;;;;23.82;46.86;99174.63;10522507;28;20044;-60
2023/07/29 18:22:30;;;;;;;1.40;0.85;;;;;;;23.18;48.24;99175.69;10552261;27;20074;-60
2023/07/29 18:27:32;;;;;;;1.17;0.90;;;;;;;22.98;48.60;99178.16;10543067;28;20078;-60
2023/07/29 18:32:34;;;;;;;0.88;0.60;;;;;;;22.75;49.38;99187.31;10541645;27;20051;-60
2023/07/29 18:37:37;;;;;;;1.88;0.90;;;;;;;22.60;49.72;99190.78;10539762;27;20058;-60
2023/07/29 18:42:39;;;;;;;1.33;0.88;;;;;;;22.54;50.14;99196.88;10511620;27;20303;-60
2023/07/29 18:47:41;;;;;;;1.38;0.95;;;;;;;22.37;50.70;99191.94;10559296;27;20617;-60
2023/07/29 18:52:43;;;;;;;2.05;1.00;;;;;;;22.15;50.92;99200.84;10531610;27;20043;-60
2023/07/29 18:57:45;;;;;;;1.15;0.80;;;;;;;21.99;51.73;99204.44;10518922;27;20631;-60
2023/07/29 19:02:48;;;;;;;1.73;1.10;;;;;;;22.08;52.06;99214.06;10546184;27;20093;-60
2023/07/29 19:07:50;;;;;;;1.33;0.90;;;;;;;22.09;52.10;99215.69;10541283;27;20044;-60
2023/07/29 19:12:56;;;;;;;1.30;0.90;;;;;;;21.99;53.00;99217.75;10548057;27;20054;-60
2023/07/29 19:17:58;;;;;;;1.33;0.80;;;;;;;22.01;53.24;99228.22;10537794;27;20055;-60
2023/07/29 19:23:00;;;;;;;0.70;0.70;;;;;;;21.94;53.28;99222.81;10544260;27;20469;-58
2023/07/29 19:28:02;;;;;;;0.85;0.77;;;;;;;21.79;53.85;99227.28;10529770;27;20047;-58
2023/07/29 19:33:04;;;;;;;0.73;0.70;;;;;;;21.78;53.71;99225.63;10508501;27;20436;-57
2023/07/29 19:38:07;;;;;;;1.48;1.00;;;;;;;21.70;54.20;99239.00;10541585;27;20070;-57
2023/07/29 19:43:09;;;;;;;1.50;0.80;;;;;;;21.69;54.59;99242.66;10513618;27;20058;-58
2023/07/29 19:48:11;;;;;;;1.00;0.68;;;;;;;21.58;55.04;99251.06;10554974;27;20040;-57
2023/07/29 19:53:13;;;;;;;1.65;1.00;;;;;;;21.49;55.45;99260.13;10565623;27;20128;-58
2023/07/29 19:58:15;;;;;;;2.45;1.02;;;;;;;21.50;56.29;99262.59;10540775;27;20031;-58
2023/07/29 20:03:20;;;;;;;4.22;0.88;;;;;;;21.40;57.01;99258.50;10545994;27;20085;-57
2023/07/29 20:08:22;;;;;;;1.38;0.90;;;;;;;21.07;58.27;99261.34;10530673;28;20071;-57
2023/07/29 20:13:28;;;;;;;0.88;0.80;;;;;;;21.01;59.21;99267.34;10539341;27;20138;-57
2023/07/29 20:18:30;;;;;;;1.40;0.93;;;;;;;20.92;59.31;99264.91;10538912;28;20047;-58
2023/07/29 20:23:32;;;;;;;1.40;0.95;;;;;;;20.80;59.74;99261.81;10543030;28;20043;-58
2023/07/29 20:28:34;;;;;;;4.38;0.93;;;;;;;20.62;60.50;99253.22;10536958;28;20134;-58
2023/07/29 20:33:36;;;;;;;1.55;1.17;;;;;;;20.64;60.71;99256.53;10541766;28;20085;-57
2023/07/29 20:38:38;;;;;;;1.48;0.90;;;;;;;20.63;61.06;99268.19;10528727;28;20080;-57
2023/07/29 20:43:40;;;;;;;2.05;1.20;;;;;;;20.44;61.42;99263.22;10515269;28;20048;-57
2023/07/29 20:48:44;;;;;;;2.47;1.30;;;;;;;20.36;62.08;99257.94;10514331;28;20047;-58
2023/07/29 20:53:46;;;;;;;1.73;1.00;;;;;;;20.31;62.29;99257.63;10541957;28;20134;-58
2023/07/29 20:58:49;;;;;;;1.27;0.90;;;;;;;20.32;61.92;99261.09;10534482;28;20044;-58
2023/07/29 21:03:51;;;;;;;1.52;1.00;;;;;;;20.16;62.34;99254.00;10545482;28;20075;-57
2023/07/29 21:08:53;;;;;;;2.20;1.23;;;;;;;20.02;62.41;99246.72;10535240;28;20126;-57
2023/07/29 21:13:55;;;;;;;4.85;1.20;;;;;;;20.00;62.60;99251.38;10508584;28;20055;-57
2023/07/29 21:18:57;;;;;;;0.82;0.77;;;;;;;19.98;62.79;99279.91;10537206;27;20812;-57
2023/07/29 21:23:59;;;;;;;1.77;1.00;;;;;;;19.98;62.20;99279.91;10551922;27;20047;-58
2023/07/29 21:29:01;;;;;;;1.30;1.00;;;;;;;19.97;61.72;99286.22;10541673;27;20039;-58
2023/07/29 21:34:03;;;;;;;1.75;1.08;;;;;;;19.98;62.18;99285.22;10552592;27;20132;-57
2023/07/29 21:39:05;;;;;;;2.13;1.10;;;;;;;19.90;61.97;99283.41;10542052;27;20070;-57
2023/07/29 21:44:07;;;;;;;2.45;1.00;;;;;;;19.94;61.64;99282.06;10549791;27;20329;-57
2023/07/29 21:49:10;;;;;;;1.20;0.85;;;;;;;19.81;61.37;99281.72;10543641;27;20047;-57
2023/07/29 21:54:12;;;;;;;0.60;0.57;;;;;;;19.75;61.43;99279.72;10549642;27;20112;-57
2023/07/29 21:59:14;;;;;;;1.77;1.00;;;;;;;19.72;61.89;99290.66;10542486;27;20104;-58
2023/07/29 22:04:16;;;;;;;2.38;0.88;;;;;;;19.74;61.64;99293.16;10551891;27;20046;-57
2023/07/29 22:09:18;;;;;;;1.23;0.70;;;;;;;19.65;61.56;99297.63;10542009;27;20483;-58
2023/07/29 22:14:20;;;;;;;1.73;0.80;;;;;;;19.35;61.97;99299.06;10549909;27;20046;-58
2023/07/29 22:19:24;;;;;;;2.22;0.98;;;;;;;19.24;62.08;99296.72;10542417;27;20040;-58
2023/07/29 22:24:26;;;;;;;1.00;0.90;;;;;;;19.16;61.85;99299.34;10550289;27;20051;-58
2023/07/29 22:29:28;;;;;;;1.92;0.65;;;;;;;19.08;61.94;99306.44;10523908;28;20044;-58
2023/07/29 22:34:30;;;;;;;1.30;0.80;;;;;;;19.03;62.17;99314.84;10549070;27;20047;-58
2023/07/29 22:39:32;;;;;;;1.08;0.85;;;;;;;18.99;62.21;99308.19;10522202;27;20277;-58
2023/07/29 22:44:34;;;;;;;0.98;0.90;;;;;;;18.86;62.38;99309.63;10545707;27;20040;-58
2023/07/29 22:49:36;;;;;;;1.58;1.15;;;;;;;18.79;62.79;99309.41;10540043;27;20040;-58
2023/07/29 22:54:38;;;;;;;1.55;0.73;;;;;;;18.76;62.75;99311.56;10528390;27;20559;-58
2023/07/29 22:59:40;;;;;;;5.65;0.90;;;;;;;18.82;62.23;99301.16;10538992;27;20830;-58
2023/07/29 23:04:42;;;;;;;1.45;0.88;;;;;;;18.81;62.47;99304.00;10566949;27;20196;-58
2023/07/29 23:09:44;;;;;;;1.60;0.90;;;;;;;18.75;62.66;99309.94;10539541;27;20140;-58
2023/07/29 23:14:46;;;;;;;1.17;0.82;;;;;;;18.83;62.14;99308.13;10546295;27;20185;-58
2023/07/29 23:19:48;;;;;;;0.70;0.68;;;;;;;18.87;62.27;99304.16;10539461;27;20134;-58
2023/07/29 23:24:51;;;;;;;0.65;0.65;;;;;;;18.72;62.24;99302.28;10547069;27;20109;-58
2023/07/29 23:29:52;;;;;;;8.10;1.20;;;;;;;18.72;62.49;99311.06;10521206;27;20040;-58
2023/07/29 23:34:54;;;;;;;1.25;0.85;;;;;;;18.80;62.16;99326.16;10546036;27;20182;-58
2023/07/29 23:39:56;;;;;;;0.90;0.73;;;;;;;18.84;62.34;99330.16;10505096;28;20043;-58
2023/07/29 23:44:58;;;;;;;0.65;0.65;;;;;;;18.88;62.30;99315.59;10529234;27;20466;-58
2023/07/29 23:50:00;;;;;;;2.35;0.60;;;;;;;19.04;61.75;99313.88;10539541;28;20043;-57
2023/07/29 23:55:03;;;;;;;1.50;0.90;;;;;;;19.10;61.88;99315.06;10527042;27;20044;-58
